sensor_id;sensor_type;location;lat;lon;timestamp;P1;durP1;ratioP1;P2;durP2;ratioP2
23129;SDS011;11734;51.046;13.778;2023-03-21T00:00:28;16.37;;;10.23;;
23129;SDS011;11734;51.046;13.778;2023-03-21T00:02:55;15.77;;;10.53;;
23129;SDS011;11734;51.046;13.778;2023-03-21T00:05:23;14.63;;;10.43;;
23129;SDS011;11734;51.046;13.778;2023-03-21T00:07:50;16.30;;;10.13;;
23129;SDS011;11734;51.046;13.778;2023-03-21T00:10:18;14.80;;;10.70;;
23129;SDS011;11734;51.046;13.778;2023-03-21T00:13:04;14.43;;;11.13;;
23129;SDS011;11734;51.046;13.778;2023-03-21T00:15:31;15.10;;;10.43;;
23129;SDS011;11734;51.046;13.778;2023-03-21T00:18:11;14.67;;;10.67;;
23129;SDS011;11734;51.046;13.778;2023-03-21T00:20:39;13.87;;;10.70;;
23129;SDS011;11734;51.046;13.778;2023-03-21T00:23:07;15.17;;;11.50;;
23129;SDS011;11734;51.046;13.778;2023-03-21T00:25:35;14.80;;;10.67;;
23129;SDS011;11734;51.046;13.778;2023-03-21T00:28:03;15.00;;;10.80;;
23129;SDS011;11734;51.046;13.778;2023-03-21T00:30:34;14.90;;;10.90;;
23129;SDS011;11734;51.046;13.778;2023-03-21T00:33:01;19.87;;;13.03;;
23129;SDS011;11734;51.046;13.778;2023-03-21T00:35:49;18.23;;;13.40;;
23129;SDS011;11734;51.046;13.778;2023-03-21T00:38:28;18.37;;;13.13;;
23129;SDS011;11734;51.046;13.778;2023-03-21T00:40:55;16.70;;;12.10;;
23129;SDS011;11734;51.046;13.778;2023-03-21T00:43:30;17.17;;;12.83;;
23129;SDS011;11734;51.046;13.778;2023-03-21T00:45:59;20.70;;;13.77;;
23129;SDS011;11734;51.046;13.778;2023-03-21T00:48:28;18.97;;;13.20;;
23129;SDS011;11734;51.046;13.778;2023-03-21T00:50:56;17.53;;;12.87;;
23129;SDS011;11734;51.046;13.778;2023-03-21T00:53:25;17.27;;;12.80;;
23129;SDS011;11734;51.046;13.778;2023-03-21T00:55:52;19.63;;;13.67;;
23129;SDS011;11734;51.046;13.778;2023-03-21T00:58:20;21.03;;;14.27;;
23129;SDS011;11734;51.046;13.778;2023-03-21T01:00:48;19.07;;;13.20;;
23129;SDS011;11734;51.046;13.778;2023-03-21T01:03:16;22.00;;;15.07;;
23129;SDS011;11734;51.046;13.778;2023-03-21T01:05:50;20.80;;;15.07;;
23129;SDS011;11734;51.046;13.778;2023-03-21T01:08:32;23.53;;;16.33;;
23129;SDS011;11734;51.046;13.778;2023-03-21T01:11:17;26.37;;;17.17;;
23129;SDS011;11734;51.046;13.778;2023-03-21T01:13:45;24.20;;;17.20;;
23129;SDS011;11734;51.046;13.778;2023-03-21T01:16:23;24.30;;;16.57;;
23129;SDS011;11734;51.046;13.778;2023-03-21T01:18:51;25.83;;;17.17;;
23129;SDS011;11734;51.046;13.778;2023-03-21T01:21:18;25.83;;;17.70;;
23129;SDS011;11734;51.046;13.778;2023-03-21T01:23:46;30.10;;;18.37;;
23129;SDS011;11734;51.046;13.778;2023-03-21T01:26:13;27.00;;;18.03;;
23129;SDS011;11734;51.046;13.778;2023-03-21T01:28:42;27.03;;;18.17;;
23129;SDS011;11734;51.046;13.778;2023-03-21T01:31:11;29.03;;;19.03;;
23129;SDS011;11734;51.046;13.778;2023-03-21T01:33:38;26.73;;;17.90;;
23129;SDS011;11734;51.046;13.778;2023-03-21T01:36:06;27.97;;;18.03;;
23129;SDS011;11734;51.046;13.778;2023-03-21T01:38:40;27.20;;;18.43;;
23129;SDS011;11734;51.046;13.778;2023-03-21T01:41:09;27.33;;;18.33;;
23129;SDS011;11734;51.046;13.778;2023-03-21T01:43:46;29.27;;;19.30;;
23129;SDS011;11734;51.046;13.778;2023-03-21T01:49:33;26.00;;;18.97;;
23129;SDS011;11734;51.046;13.778;2023-03-21T01:52:23;29.47;;;18.83;;
23129;SDS011;11734;51.046;13.778;2023-03-21T01:55:10;28.20;;;18.60;;
23129;SDS011;11734;51.046;13.778;2023-03-21T01:57:51;28.93;;;19.37;;
23129;SDS011;11734;51.046;13.778;2023-03-21T02:00:50;26.40;;;18.97;;
23129;SDS011;11734;51.046;13.778;2023-03-21T02:03:30;28.93;;;18.43;;
23129;SDS011;11734;51.046;13.778;2023-03-21T02:09:02;30.40;;;20.30;;
23129;SDS011;11734;51.046;13.778;2023-03-21T02:11:30;28.10;;;18.93;;
23129;SDS011;11734;51.046;13.778;2023-03-21T02:13:58;29.83;;;20.40;;
23129;SDS011;11734;51.046;13.778;2023-03-21T02:16:49;27.10;;;19.67;;
23129;SDS011;11734;51.046;13.778;2023-03-21T02:27:31;29.97;;;19.93;;
23129;SDS011;11734;51.046;13.778;2023-03-21T02:38:05;28.07;;;19.93;;
23129;SDS011;11734;51.046;13.778;2023-03-21T02:45:56;29.80;;;20.20;;
23129;SDS011;11734;51.046;13.778;2023-03-21T02:48:31;29.13;;;20.47;;
23129;SDS011;11734;51.046;13.778;2023-03-21T02:51:16;28.13;;;21.60;;
23129;SDS011;11734;51.046;13.778;2023-03-21T02:53:48;32.57;;;21.07;;
23129;SDS011;11734;51.046;13.778;2023-03-21T02:56:36;28.10;;;19.73;;
23129;SDS011;11734;51.046;13.778;2023-03-21T02:59:06;27.57;;;19.07;;
23129;SDS011;11734;51.046;13.778;2023-03-21T03:01:34;25.67;;;18.80;;
23129;SDS011;11734;51.046;13.778;2023-03-21T03:04:02;26.27;;;18.83;;
23129;SDS011;11734;51.046;13.778;2023-03-21T03:06:32;28.10;;;19.03;;
23129;SDS011;11734;51.046;13.778;2023-03-21T03:11:38;25.37;;;18.53;;
23129;SDS011;11734;51.046;13.778;2023-03-21T03:19:43;25.13;;;18.80;;
23129;SDS011;11734;51.046;13.778;2023-03-21T03:22:22;27.13;;;18.80;;
23129;SDS011;11734;51.046;13.778;2023-03-21T03:27:22;27.93;;;19.50;;
23129;SDS011;11734;51.046;13.778;2023-03-21T03:29:51;23.87;;;18.60;;
23129;SDS011;11734;51.046;13.778;2023-03-21T03:32:46;26.90;;;19.13;;
23129;SDS011;11734;51.046;13.778;2023-03-21T03:35:12;26.13;;;19.63;;
23129;SDS011;11734;51.046;13.778;2023-03-21T03:37:41;27.07;;;19.90;;
23129;SDS011;11734;51.046;13.778;2023-03-21T03:42:48;26.03;;;19.70;;
23129;SDS011;11734;51.046;13.778;2023-03-21T03:45:34;28.77;;;19.70;;
23129;SDS011;11734;51.046;13.778;2023-03-21T03:48:05;29.07;;;19.97;;
23129;SDS011;11734;51.046;13.778;2023-03-21T03:50:41;29.70;;;20.70;;
23129;SDS011;11734;51.046;13.778;2023-03-21T03:55:50;28.90;;;20.17;;
23129;SDS011;11734;51.046;13.778;2023-03-21T03:58:20;28.07;;;20.20;;
23129;SDS011;11734;51.046;13.778;2023-03-21T04:00:55;29.53;;;20.13;;
23129;SDS011;11734;51.046;13.778;2023-03-21T04:03:22;26.43;;;19.30;;
23129;SDS011;11734;51.046;13.778;2023-03-21T04:05:50;27.17;;;20.30;;
23129;SDS011;11734;51.046;13.778;2023-03-21T04:08:19;27.80;;;20.77;;
23129;SDS011;11734;51.046;13.778;2023-03-21T04:10:51;29.80;;;20.53;;
23129;SDS011;11734;51.046;13.778;2023-03-21T04:13:20;29.27;;;21.00;;
23129;SDS011;11734;51.046;13.778;2023-03-21T04:16:03;29.40;;;21.23;;
23129;SDS011;11734;51.046;13.778;2023-03-21T04:18:31;30.90;;;21.03;;
23129;SDS011;11734;51.046;13.778;2023-03-21T04:20:59;29.20;;;20.80;;
23129;SDS011;11734;51.046;13.778;2023-03-21T04:23:28;28.50;;;20.50;;
23129;SDS011;11734;51.046;13.778;2023-03-21T04:25:56;29.73;;;20.93;;
23129;SDS011;11734;51.046;13.778;2023-03-21T04:28:33;27.57;;;21.33;;
23129;SDS011;11734;51.046;13.778;2023-03-21T04:31:34;28.20;;;20.43;;
23129;SDS011;11734;51.046;13.778;2023-03-21T04:34:10;30.87;;;22.23;;
23129;SDS011;11734;51.046;13.778;2023-03-21T04:36:43;31.60;;;22.07;;
23129;SDS011;11734;51.046;13.778;2023-03-21T04:39:15;30.93;;;22.53;;
23129;SDS011;11734;51.046;13.778;2023-03-21T04:41:46;30.37;;;20.80;;
23129;SDS011;11734;51.046;13.778;2023-03-21T04:44:14;32.13;;;21.83;;
23129;SDS011;11734;51.046;13.778;2023-03-21T04:46:42;32.47;;;22.83;;
23129;SDS011;11734;51.046;13.778;2023-03-21T04:49:11;30.40;;;21.53;;
23129;SDS011;11734;51.046;13.778;2023-03-21T04:51:40;30.80;;;22.80;;
23129;SDS011;11734;51.046;13.778;2023-03-21T04:54:10;29.43;;;21.20;;
23129;SDS011;11734;51.046;13.778;2023-03-21T04:56:39;30.00;;;21.27;;
23129;SDS011;11734;51.046;13.778;2023-03-21T04:59:09;33.20;;;22.23;;
23129;SDS011;11734;51.046;13.778;2023-03-21T05:01:37;31.60;;;22.10;;
23129;SDS011;11734;51.046;13.778;2023-03-21T05:04:07;33.47;;;23.00;;
23129;SDS011;11734;51.046;13.778;2023-03-21T05:06:35;32.03;;;22.80;;
23129;SDS011;11734;51.046;13.778;2023-03-21T05:09:02;30.57;;;22.70;;
23129;SDS011;11734;51.046;13.778;2023-03-21T05:11:36;33.10;;;23.03;;
23129;SDS011;11734;51.046;13.778;2023-03-21T05:14:04;30.27;;;21.73;;
23129;SDS011;11734;51.046;13.778;2023-03-21T05:16:32;31.07;;;22.37;;
23129;SDS011;11734;51.046;13.778;2023-03-21T05:19:00;31.40;;;22.13;;
23129;SDS011;11734;51.046;13.778;2023-03-21T05:21:34;30.97;;;21.33;;
23129;SDS011;11734;51.046;13.778;2023-03-21T05:24:16;26.30;;;20.23;;
23129;SDS011;11734;51.046;13.778;2023-03-21T05:26:44;29.10;;;20.87;;
23129;SDS011;11734;51.046;13.778;2023-03-21T05:29:21;28.70;;;20.27;;
23129;SDS011;11734;51.046;13.778;2023-03-21T05:32:08;29.67;;;20.00;;
23129;SDS011;11734;51.046;13.778;2023-03-21T05:34:35;29.70;;;20.27;;
23129;SDS011;11734;51.046;13.778;2023-03-21T05:37:03;29.17;;;21.67;;
23129;SDS011;11734;51.046;13.778;2023-03-21T05:39:46;31.27;;;20.27;;
23129;SDS011;11734;51.046;13.778;2023-03-21T05:42:28;30.30;;;20.73;;
23129;SDS011;11734;51.046;13.778;2023-03-21T05:44:56;33.67;;;23.13;;
23129;SDS011;11734;51.046;13.778;2023-03-21T05:47:33;33.70;;;22.70;;
23129;SDS011;11734;51.046;13.778;2023-03-21T05:50:02;30.13;;;20.73;;
23129;SDS011;11734;51.046;13.778;2023-03-21T05:52:31;28.77;;;20.30;;
23129;SDS011;11734;51.046;13.778;2023-03-21T05:55:05;25.73;;;19.57;;
23129;SDS011;11734;51.046;13.778;2023-03-21T05:57:33;35.00;;;23.77;;
23129;SDS011;11734;51.046;13.778;2023-03-21T06:00:06;26.67;;;18.00;;
23129;SDS011;11734;51.046;13.778;2023-03-21T06:02:52;36.93;;;26.27;;
23129;SDS011;11734;51.046;13.778;2023-03-21T06:05:44;24.87;;;18.97;;
23129;SDS011;11734;51.046;13.778;2023-03-21T06:08:18;16.80;;;12.87;;
23129;SDS011;11734;51.046;13.778;2023-03-21T06:10:45;16.10;;;12.27;;
23129;SDS011;11734;51.046;13.778;2023-03-21T06:13:13;15.80;;;11.17;;
23129;SDS011;11734;51.046;13.778;2023-03-21T06:15:41;16.00;;;10.73;;
23129;SDS011;11734;51.046;13.778;2023-03-21T06:18:14;13.87;;;9.83;;
23129;SDS011;11734;51.046;13.778;2023-03-21T06:20:52;14.50;;;9.73;;
23129;SDS011;11734;51.046;13.778;2023-03-21T06:23:20;10.57;;;8.67;;
23129;SDS011;11734;51.046;13.778;2023-03-21T06:25:48;11.33;;;8.70;;
23129;SDS011;11734;51.046;13.778;2023-03-21T06:28:15;11.03;;;9.13;;
23129;SDS011;11734;51.046;13.778;2023-03-21T06:31:01;10.83;;;8.33;;
23129;SDS011;11734;51.046;13.778;2023-03-21T06:33:31;14.37;;;10.70;;
23129;SDS011;11734;51.046;13.778;2023-03-21T06:35:58;12.33;;;8.83;;
23129;SDS011;11734;51.046;13.778;2023-03-21T06:38:29;11.43;;;7.77;;
23129;SDS011;11734;51.046;13.778;2023-03-21T06:40:57;10.80;;;7.70;;
23129;SDS011;11734;51.046;13.778;2023-03-21T06:43:29;11.57;;;7.40;;
23129;SDS011;11734;51.046;13.778;2023-03-21T06:46:00;10.37;;;7.13;;
23129;SDS011;11734;51.046;13.778;2023-03-21T06:48:28;10.80;;;7.33;;
23129;SDS011;11734;51.046;13.778;2023-03-21T06:50:56;12.87;;;7.80;;
23129;SDS011;11734;51.046;13.778;2023-03-21T06:53:26;11.10;;;7.37;;
23129;SDS011;11734;51.046;13.778;2023-03-21T06:56:08;10.27;;;7.00;;
23129;SDS011;11734;51.046;13.778;2023-03-21T06:58:37;9.73;;;7.23;;
23129;SDS011;11734;51.046;13.778;2023-03-21T07:01:07;9.33;;;6.60;;
23129;SDS011;11734;51.046;13.778;2023-03-21T07:03:46;11.77;;;7.37;;
23129;SDS011;11734;51.046;13.778;2023-03-21T07:06:13;10.47;;;7.00;;
23129;SDS011;11734;51.046;13.778;2023-03-21T07:08:41;11.03;;;7.10;;
23129;SDS011;11734;51.046;13.778;2023-03-21T07:11:09;9.33;;;7.40;;
23129;SDS011;11734;51.046;13.778;2023-03-21T07:13:36;10.10;;;7.60;;
23129;SDS011;11734;51.046;13.778;2023-03-21T07:16:04;8.10;;;6.67;;
23129;SDS011;11734;51.046;13.778;2023-03-21T07:18:31;10.47;;;6.73;;
23129;SDS011;11734;51.046;13.778;2023-03-21T07:20:59;9.87;;;7.07;;
23129;SDS011;11734;51.046;13.778;2023-03-21T07:23:26;9.40;;;6.67;;
23129;SDS011;11734;51.046;13.778;2023-03-21T07:25:54;9.67;;;6.60;;
23129;SDS011;11734;51.046;13.778;2023-03-21T07:28:22;11.13;;;7.23;;
23129;SDS011;11734;51.046;13.778;2023-03-21T07:30:56;9.97;;;6.73;;
23129;SDS011;11734;51.046;13.778;2023-03-21T07:33:24;10.37;;;6.53;;
23129;SDS011;11734;51.046;13.778;2023-03-21T07:35:56;9.70;;;7.37;;
23129;SDS011;11734;51.046;13.778;2023-03-21T07:38:24;10.20;;;7.53;;
23129;SDS011;11734;51.046;13.778;2023-03-21T07:40:52;10.33;;;7.23;;
23129;SDS011;11734;51.046;13.778;2023-03-21T07:43:20;10.77;;;7.27;;
23129;SDS011;11734;51.046;13.778;2023-03-21T07:45:50;11.90;;;8.10;;
23129;SDS011;11734;51.046;13.778;2023-03-21T07:48:18;11.07;;;7.87;;
23129;SDS011;11734;51.046;13.778;2023-03-21T07:50:47;11.27;;;7.53;;
23129;SDS011;11734;51.046;13.778;2023-03-21T07:53:15;10.10;;;7.70;;
23129;SDS011;11734;51.046;13.778;2023-03-21T07:55:43;9.33;;;7.57;;
23129;SDS011;11734;51.046;13.778;2023-03-21T07:58:10;11.13;;;7.90;;
23129;SDS011;11734;51.046;13.778;2023-03-21T08:00:38;11.90;;;7.77;;
23129;SDS011;11734;51.046;13.778;2023-03-21T08:03:05;11.10;;;7.67;;
23129;SDS011;11734;51.046;13.778;2023-03-21T08:05:33;11.73;;;8.23;;
23129;SDS011;11734;51.046;13.778;2023-03-21T08:08:02;10.00;;;7.97;;
23129;SDS011;11734;51.046;13.778;2023-03-21T08:10:29;10.30;;;7.90;;
23129;SDS011;11734;51.046;13.778;2023-03-21T08:12:57;10.17;;;8.03;;
23129;SDS011;11734;51.046;13.778;2023-03-21T08:15:24;10.27;;;7.97;;
23129;SDS011;11734;51.046;13.778;2023-03-21T08:17:51;8.70;;;7.17;;
23129;SDS011;11734;51.046;13.778;2023-03-21T08:20:20;10.30;;;7.10;;
23129;SDS011;11734;51.046;13.778;2023-03-21T08:22:48;11.40;;;7.60;;
23129;SDS011;11734;51.046;13.778;2023-03-21T08:25:17;11.10;;;7.63;;
23129;SDS011;11734;51.046;13.778;2023-03-21T08:27:45;8.80;;;6.90;;
23129;SDS011;11734;51.046;13.778;2023-03-21T08:30:13;11.10;;;6.47;;
23129;SDS011;11734;51.046;13.778;2023-03-21T08:32:42;10.97;;;6.37;;
23129;SDS011;11734;51.046;13.778;2023-03-21T08:35:10;10.13;;;7.23;;
23129;SDS011;11734;51.046;13.778;2023-03-21T08:37:38;13.63;;;9.33;;
23129;SDS011;11734;51.046;13.778;2023-03-21T08:40:10;9.93;;;6.80;;
23129;SDS011;11734;51.046;13.778;2023-03-21T08:42:39;11.90;;;7.20;;
23129;SDS011;11734;51.046;13.778;2023-03-21T08:45:08;10.80;;;6.80;;
23129;SDS011;11734;51.046;13.778;2023-03-21T08:47:54;8.57;;;6.37;;
23129;SDS011;11734;51.046;13.778;2023-03-21T08:50:23;10.00;;;6.90;;
23129;SDS011;11734;51.046;13.778;2023-03-21T08:52:51;8.87;;;6.57;;
23129;SDS011;11734;51.046;13.778;2023-03-21T08:55:19;8.30;;;6.50;;
23129;SDS011;11734;51.046;13.778;2023-03-21T08:57:46;10.23;;;6.70;;
23129;SDS011;11734;51.046;13.778;2023-03-21T09:00:14;9.10;;;5.47;;
23129;SDS011;11734;51.046;13.778;2023-03-21T09:02:44;11.20;;;6.77;;
23129;SDS011;11734;51.046;13.778;2023-03-21T09:05:12;8.13;;;6.40;;
23129;SDS011;11734;51.046;13.778;2023-03-21T09:07:39;12.03;;;7.27;;
23129;SDS011;11734;51.046;13.778;2023-03-21T09:10:09;8.33;;;6.43;;
23129;SDS011;11734;51.046;13.778;2023-03-21T09:12:47;9.97;;;6.43;;
23129;SDS011;11734;51.046;13.778;2023-03-21T09:15:15;7.77;;;6.70;;
23129;SDS011;11734;51.046;13.778;2023-03-21T09:17:43;7.57;;;6.00;;
23129;SDS011;11734;51.046;13.778;2023-03-21T09:20:18;9.17;;;5.87;;
23129;SDS011;11734;51.046;13.778;2023-03-21T09:22:48;8.87;;;6.03;;
23129;SDS011;11734;51.046;13.778;2023-03-21T09:25:17;8.33;;;6.27;;
23129;SDS011;11734;51.046;13.778;2023-03-21T09:27:46;7.60;;;6.07;;
23129;SDS011;11734;51.046;13.778;2023-03-21T09:30:14;7.33;;;5.70;;
23129;SDS011;11734;51.046;13.778;2023-03-21T09:32:42;7.03;;;5.37;;
23129;SDS011;11734;51.046;13.778;2023-03-21T09:35:18;7.90;;;5.57;;
23129;SDS011;11734;51.046;13.778;2023-03-21T09:37:46;8.10;;;6.47;;
23129;SDS011;11734;51.046;13.778;2023-03-21T09:40:18;7.53;;;5.70;;
23129;SDS011;11734;51.046;13.778;2023-03-21T09:47:48;7.13;;;5.23;;
23129;SDS011;11734;51.046;13.778;2023-03-21T09:50:20;7.10;;;4.93;;
23129;SDS011;11734;51.046;13.778;2023-03-21T09:53:35;6.63;;;5.33;;
23129;SDS011;11734;51.046;13.778;2023-03-21T09:55:42;5.53;;;5.03;;
23129;SDS011;11734;51.046;13.778;2023-03-21T09:58:26;7.73;;;5.47;;
23129;SDS011;11734;51.046;13.778;2023-03-21T10:01:13;6.93;;;5.00;;
23129;SDS011;11734;51.046;13.778;2023-03-21T10:03:54;6.60;;;4.60;;
23129;SDS011;11734;51.046;13.778;2023-03-21T10:06:22;4.63;;;4.23;;
23129;SDS011;11734;51.046;13.778;2023-03-21T10:08:54;5.23;;;4.70;;
23129;SDS011;11734;51.046;13.778;2023-03-21T10:11:24;6.27;;;5.00;;
23129;SDS011;11734;51.046;13.778;2023-03-21T10:14:05;5.10;;;4.60;;
23129;SDS011;11734;51.046;13.778;2023-03-21T10:16:35;6.57;;;5.23;;
23129;SDS011;11734;51.046;13.778;2023-03-21T10:19:06;5.20;;;4.47;;
23129;SDS011;11734;51.046;13.778;2023-03-21T10:21:37;5.07;;;4.13;;
23129;SDS011;11734;51.046;13.778;2023-03-21T10:24:26;7.40;;;4.57;;
23129;SDS011;11734;51.046;13.778;2023-03-21T10:26:54;6.13;;;4.40;;
23129;SDS011;11734;51.046;13.778;2023-03-21T10:29:26;5.37;;;4.83;;
23129;SDS011;11734;51.046;13.778;2023-03-21T10:31:55;4.33;;;3.93;;
23129;SDS011;11734;51.046;13.778;2023-03-21T10:34:34;5.10;;;4.10;;
23129;SDS011;11734;51.046;13.778;2023-03-21T10:37:02;5.27;;;4.33;;
23129;SDS011;11734;51.046;13.778;2023-03-21T10:39:33;6.30;;;3.87;;
23129;SDS011;11734;51.046;13.778;2023-03-21T10:42:02;6.80;;;4.27;;
23129;SDS011;11734;51.046;13.778;2023-03-21T10:44:30;4.30;;;3.90;;
23129;SDS011;11734;51.046;13.778;2023-03-21T10:47:02;5.13;;;3.93;;
23129;SDS011;11734;51.046;13.778;2023-03-21T10:49:30;3.90;;;3.50;;
23129;SDS011;11734;51.046;13.778;2023-03-21T10:52:07;4.13;;;3.73;;
23129;SDS011;11734;51.046;13.778;2023-03-21T10:54:35;3.97;;;3.17;;
23129;SDS011;11734;51.046;13.778;2023-03-21T10:57:10;4.80;;;3.93;;
23129;SDS011;11734;51.046;13.778;2023-03-21T10:59:40;3.87;;;3.47;;
23129;SDS011;11734;51.046;13.778;2023-03-21T11:02:16;3.80;;;3.50;;
23129;SDS011;11734;51.046;13.778;2023-03-21T11:04:44;4.87;;;3.70;;
23129;SDS011;11734;51.046;13.778;2023-03-21T11:07:13;3.70;;;3.20;;
23129;SDS011;11734;51.046;13.778;2023-03-21T11:09:45;5.27;;;3.10;;
23129;SDS011;11734;51.046;13.778;2023-03-21T11:12:14;3.50;;;3.20;;
23129;SDS011;11734;51.046;13.778;2023-03-21T11:14:46;4.57;;;3.27;;
23129;SDS011;11734;51.046;13.778;2023-03-21T11:19:48;4.60;;;3.50;;
23129;SDS011;11734;51.046;13.778;2023-03-21T11:22:17;3.57;;;3.27;;
23129;SDS011;11734;51.046;13.778;2023-03-21T11:24:47;3.40;;;3.10;;
23129;SDS011;11734;51.046;13.778;2023-03-21T11:27:16;4.87;;;3.97;;
23129;SDS011;11734;51.046;13.778;2023-03-21T11:29:45;3.93;;;3.50;;
23129;SDS011;11734;51.046;13.778;2023-03-21T11:32:21;3.83;;;3.43;;
23129;SDS011;11734;51.046;13.778;2023-03-21T11:34:50;4.03;;;3.63;;
23129;SDS011;11734;51.046;13.778;2023-03-21T11:37:32;3.90;;;3.50;;
23129;SDS011;11734;51.046;13.778;2023-03-21T11:40:12;3.43;;;3.13;;
23129;SDS011;11734;51.046;13.778;2023-03-21T11:42:46;3.93;;;3.03;;
23129;SDS011;11734;51.046;13.778;2023-03-21T11:45:16;4.13;;;3.30;;
23129;SDS011;11734;51.046;13.778;2023-03-21T11:47:44;5.40;;;3.13;;
23129;SDS011;11734;51.046;13.778;2023-03-21T11:55:33;3.43;;;3.00;;
23129;SDS011;11734;51.046;13.778;2023-03-21T12:05:51;3.80;;;3.40;;
23129;SDS011;11734;51.046;13.778;2023-03-21T12:08:46;2.93;;;2.63;;
23129;SDS011;11734;51.046;13.778;2023-03-21T12:14:09;4.00;;;3.60;;
23129;SDS011;11734;51.046;13.778;2023-03-21T12:24:17;5.10;;;3.20;;
23129;SDS011;11734;51.046;13.778;2023-03-21T12:26:51;4.13;;;3.60;;
23129;SDS011;11734;51.046;13.778;2023-03-21T12:32:32;4.10;;;3.30;;
23129;SDS011;11734;51.046;13.778;2023-03-21T12:37:32;4.47;;;3.97;;
23129;SDS011;11734;51.046;13.778;2023-03-21T12:43:06;4.40;;;3.80;;
23129;SDS011;11734;51.046;13.778;2023-03-21T12:45:40;3.30;;;2.97;;
23129;SDS011;11734;51.046;13.778;2023-03-21T12:48:15;3.97;;;3.57;;
23129;SDS011;11734;51.046;13.778;2023-03-21T12:50:44;4.03;;;3.47;;
23129;SDS011;11734;51.046;13.778;2023-03-21T12:56:02;4.30;;;3.90;;
23129;SDS011;11734;51.046;13.778;2023-03-21T12:58:31;5.40;;;4.07;;
23129;SDS011;11734;51.046;13.778;2023-03-21T13:01:02;4.00;;;3.60;;
23129;SDS011;11734;51.046;13.778;2023-03-21T13:03:35;4.37;;;3.70;;
23129;SDS011;11734;51.046;13.778;2023-03-21T13:06:06;3.97;;;3.57;;
23129;SDS011;11734;51.046;13.778;2023-03-21T13:11:03;4.23;;;3.37;;
23129;SDS011;11734;51.046;13.778;2023-03-21T13:16:09;5.03;;;3.40;;
23129;SDS011;11734;51.046;13.778;2023-03-21T13:21:14;2.90;;;2.70;;
23129;SDS011;11734;51.046;13.778;2023-03-21T13:23:53;3.90;;;3.50;;
23129;SDS011;11734;51.046;13.778;2023-03-21T13:26:30;3.47;;;3.17;;
23129;SDS011;11734;51.046;13.778;2023-03-21T13:28:57;3.17;;;2.77;;
23129;SDS011;11734;51.046;13.778;2023-03-21T13:31:26;3.43;;;2.90;;
23129;SDS011;11734;51.046;13.778;2023-03-21T13:34:06;3.20;;;2.90;;
23129;SDS011;11734;51.046;13.778;2023-03-21T13:36:35;3.27;;;2.97;;
23129;SDS011;11734;51.046;13.778;2023-03-21T13:39:04;4.70;;;3.53;;
23129;SDS011;11734;51.046;13.778;2023-03-21T13:41:36;4.00;;;3.17;;
23129;SDS011;11734;51.046;13.778;2023-03-21T13:44:14;3.83;;;3.10;;
23129;SDS011;11734;51.046;13.778;2023-03-21T13:46:43;3.70;;;3.20;;
23129;SDS011;11734;51.046;13.778;2023-03-21T13:49:26;3.50;;;3.20;;
23129;SDS011;11734;51.046;13.778;2023-03-21T13:51:55;3.77;;;3.20;;
23129;SDS011;11734;51.046;13.778;2023-03-21T13:54:28;3.80;;;3.40;;
23129;SDS011;11734;51.046;13.778;2023-03-21T13:56:56;3.73;;;2.90;;
23129;SDS011;11734;51.046;13.778;2023-03-21T14:04:54;3.10;;;2.80;;
23129;SDS011;11734;51.046;13.778;2023-03-21T14:10:00;4.97;;;3.10;;
23129;SDS011;11734;51.046;13.778;2023-03-21T14:12:39;3.23;;;2.90;;
23129;SDS011;11734;51.046;13.778;2023-03-21T14:15:12;3.60;;;2.53;;
23129;SDS011;11734;51.046;13.778;2023-03-21T14:17:53;4.93;;;3.20;;
23129;SDS011;11734;51.046;13.778;2023-03-21T14:22:48;3.37;;;3.07;;
23129;SDS011;11734;51.046;13.778;2023-03-21T14:25:16;4.80;;;3.03;;
23129;SDS011;11734;51.046;13.778;2023-03-21T14:27:45;3.50;;;2.70;;
23129;SDS011;11734;51.046;13.778;2023-03-21T14:30:22;3.87;;;3.10;;
23129;SDS011;11734;51.046;13.778;2023-03-21T14:32:53;3.20;;;2.90;;
23129;SDS011;11734;51.046;13.778;2023-03-21T14:35:21;3.33;;;3.03;;
23129;SDS011;11734;51.046;13.778;2023-03-21T14:37:48;5.50;;;3.70;;
23129;SDS011;11734;51.046;13.778;2023-03-21T14:40:23;3.47;;;3.17;;
23129;SDS011;11734;51.046;13.778;2023-03-21T14:42:52;3.30;;;2.97;;
23129;SDS011;11734;51.046;13.778;2023-03-21T14:45:24;3.43;;;3.13;;
23129;SDS011;11734;51.046;13.778;2023-03-21T14:47:56;3.80;;;3.10;;
23129;SDS011;11734;51.046;13.778;2023-03-21T14:50:27;4.77;;;3.57;;
23129;SDS011;11734;51.046;13.778;2023-03-21T14:52:56;5.10;;;3.50;;
23129;SDS011;11734;51.046;13.778;2023-03-21T14:55:23;3.30;;;3.00;;
23129;SDS011;11734;51.046;13.778;2023-03-21T14:57:51;3.23;;;2.93;;
23129;SDS011;11734;51.046;13.778;2023-03-21T15:00:24;4.57;;;3.67;;
23129;SDS011;11734;51.046;13.778;2023-03-21T15:02:53;4.13;;;3.37;;
23129;SDS011;11734;51.046;13.778;2023-03-21T15:05:22;3.70;;;3.40;;
23129;SDS011;11734;51.046;13.778;2023-03-21T15:08:02;3.47;;;3.17;;
23129;SDS011;11734;51.046;13.778;2023-03-21T15:10:30;4.83;;;3.53;;
23129;SDS011;11734;51.046;13.778;2023-03-21T15:12:58;4.23;;;3.47;;
23129;SDS011;11734;51.046;13.778;2023-03-21T15:15:26;3.50;;;3.20;;
23129;SDS011;11734;51.046;13.778;2023-03-21T15:17:55;4.03;;;3.40;;
23129;SDS011;11734;51.046;13.778;2023-03-21T15:20:25;3.73;;;3.23;;
23129;SDS011;11734;51.046;13.778;2023-03-21T15:22:54;4.53;;;3.13;;
23129;SDS011;11734;51.046;13.778;2023-03-21T15:25:28;2.97;;;2.53;;
23129;SDS011;11734;51.046;13.778;2023-03-21T15:27:56;5.10;;;2.90;;
23129;SDS011;11734;51.046;13.778;2023-03-21T15:30:24;3.20;;;2.57;;
23129;SDS011;11734;51.046;13.778;2023-03-21T15:32:54;3.03;;;2.73;;
23129;SDS011;11734;51.046;13.778;2023-03-21T15:35:26;3.73;;;2.87;;
23129;SDS011;11734;51.046;13.778;2023-03-21T15:37:54;4.40;;;3.30;;
23129;SDS011;11734;51.046;13.778;2023-03-21T15:40:24;3.03;;;2.73;;
23129;SDS011;11734;51.046;13.778;2023-03-21T15:43:03;3.07;;;2.43;;
23129;SDS011;11734;51.046;13.778;2023-03-21T15:45:30;3.43;;;2.43;;
23129;SDS011;11734;51.046;13.778;2023-03-21T15:48:02;2.63;;;2.43;;
23129;SDS011;11734;51.046;13.778;2023-03-21T15:50:35;4.83;;;3.40;;
23129;SDS011;11734;51.046;13.778;2023-03-21T15:53:05;3.20;;;2.77;;
23129;SDS011;11734;51.046;13.778;2023-03-21T15:55:43;3.27;;;2.70;;
23129;SDS011;11734;51.046;13.778;2023-03-21T15:58:14;3.20;;;2.70;;
23129;SDS011;11734;51.046;13.778;2023-03-21T16:00:46;2.77;;;2.53;;
23129;SDS011;11734;51.046;13.778;2023-03-21T16:03:26;3.60;;;3.00;;
23129;SDS011;11734;51.046;13.778;2023-03-21T16:08:31;3.80;;;3.50;;
23129;SDS011;11734;51.046;13.778;2023-03-21T16:13:47;4.17;;;2.80;;
23129;SDS011;11734;51.046;13.778;2023-03-21T16:16:22;4.53;;;3.27;;
23129;SDS011;11734;51.046;13.778;2023-03-21T16:18:50;3.70;;;3.37;;
23129;SDS011;11734;51.046;13.778;2023-03-21T16:21:19;3.27;;;2.97;;
23129;SDS011;11734;51.046;13.778;2023-03-21T16:23:47;3.40;;;3.10;;
23129;SDS011;11734;51.046;13.778;2023-03-21T16:26:19;3.77;;;2.93;;
23129;SDS011;11734;51.046;13.778;2023-03-21T16:28:47;3.30;;;3.00;;
23129;SDS011;11734;51.046;13.778;2023-03-21T16:31:15;3.00;;;2.70;;
23129;SDS011;11734;51.046;13.778;2023-03-21T16:33:43;2.90;;;2.70;;
23129;SDS011;11734;51.046;13.778;2023-03-21T16:36:11;3.53;;;3.20;;
23129;SDS011;11734;51.046;13.778;2023-03-21T16:38:39;3.40;;;3.10;;